Time;durP1;ratioP1;P1;durP2;ratioP2;P2;SDS_P1;SDS_P2;PMS_P1;PMS_P2;Temp;Humidity;BMP_temperature;BMP_pressure;BME280_temperature;BME280_humidity;BME280_pressure;Samples;Min_cycle;Max_cycle;Signal;HPM_P1;HPM_P2
2021/05/04 00:04:48;;;;;;;3.67;1.83;;;11.20;83.70;;;;;;6726726;88;20281;-77
2021/05/04 00:14:49;;;;;;;4.12;1.98;;;11.30;83.10;;;;;;6726256;88;20173;-77
2021/05/04 00:24:50;;;;;;;4.35;1.98;;;11.40;82.70;;;;;;6725371;88;20172;-77
2021/05/04 00:34:52;;;;;;;4.18;1.70;;;11.60;81.50;;;;;;6733249;88;20214;-78
2021/05/04 00:44:52;;;;;;;3.10;1.77;;;11.70;80.80;;;;;;6729918;87;20188;-76
2021/05/04 00:54:53;;;;;;;3.17;1.60;;;11.90;81.00;;;;;;6737684;88;20191;-77
2021/05/04 01:04:54;;;;;;;3.97;1.55;;;12.10;79.80;;;;;;6738682;88;20686;-76
2021/05/04 01:25:56;;;;;;;1.85;1.25;;;12.60;78.00;;;;;;6755636;88;20209;-75
2021/05/04 01:35:57;;;;;;;2.10;1.30;;;12.90;77.20;;;;;;6738692;88;20759;-75
2021/05/04 01:45:57;;;;;;;4.07;1.23;;;13.00;76.40;;;;;;6738251;88;21017;-76
2021/05/04 01:55:58;;;;;;;1.75;1.02;;;13.00;76.30;;;;;;6734659;88;20494;-76
2021/05/04 02:05:58;;;;;;;3.67;1.17;;;13.00;76.30;;;;;;6718538;88;20188;-75
2021/05/04 02:15:59;;;;;;;5.05;1.23;;;13.10;75.90;;;;;;6725999;88;20189;-75
2021/05/04 02:26:00;;;;;;;3.37;1.30;;;13.10;76.00;;;;;;6730292;88;20196;-75
2021/05/04 02:36:01;;;;;;;3.08;1.17;;;13.10;75.80;;;;;;6736234;88;20681;-75
2021/05/04 02:46:03;;;;;;;2.08;0.80;;;13.00;75.60;;;;;;6735872;88;20200;-76
2021/05/04 02:56:05;;;;;;;4.12;1.08;;;13.00;74.30;;;;;;6736559;88;20647;-76
2021/05/04 03:06:06;;;;;;;2.75;0.80;;;13.00;73.50;;;;;;6730715;88;20323;-76
2021/05/04 03:16:06;;;;;;;1.80;0.90;;;12.70;72.80;;;;;;6727829;88;20282;-76
2021/05/04 03:26:07;;;;;;;1.87;0.82;;;12.10;80.10;;;;;;6724350;88;20174;-76
2021/05/04 03:36:08;;;;;;;3.87;0.70;;;11.20;90.20;;;;;;6731713;88;20233;-75
2021/05/04 03:46:08;;;;;;;1.80;0.50;;;10.60;93.90;;;;;;6731041;88;20204;-76
2021/05/04 03:56:09;;;;;;;2.42;0.95;;;10.10;98.20;;;;;;6727559;88;21028;-75
2021/05/04 04:06:09;;;;;;;1.70;0.80;;;9.90;99.80;;;;;;6728559;88;20704;-75
2021/05/04 04:16:10;;;;;;;1.95;0.65;;;9.80;99.90;;;;;;6727516;88;20880;-76
2021/05/04 04:26:10;;;;;;;2.58;0.80;;;9.70;99.90;;;;;;6732343;88;20213;-77
2021/05/04 04:36:11;;;;;;;1.73;0.90;;;9.60;99.90;;;;;;6727667;88;20217;-76
2021/05/04 04:46:11;;;;;;;1.33;0.60;;;9.60;99.90;;;;;;6736957;88;21144;-76
2021/05/04 04:56:12;;;;;;;1.40;0.70;;;9.60;99.90;;;;;;6735774;88;20721;-77
2021/05/04 05:06:12;;;;;;;1.45;0.80;;;9.60;99.90;;;;;;6728816;88;20492;-76
2021/05/04 05:16:15;;;;;;;1.63;0.80;;;9.40;99.90;;;;;;6717462;88;20257;-77
2021/05/04 05:26:16;;;;;;;1.80;0.70;;;9.40;99.90;;;;;;6731470;88;20555;-76
2021/05/04 05:36:17;;;;;;;3.10;0.65;;;9.40;99.90;;;;;;6720395;88;20810;-77
2021/05/04 05:46:18;;;;;;;3.28;0.70;;;9.40;99.90;;;;;;6721599;88;20204;-77
2021/05/04 05:56:18;;;;;;;1.27;0.73;;;9.30;99.90;;;;;;6729598;88;20330;-77
2021/05/04 06:06:19;;;;;;;1.95;0.80;;;9.20;99.90;;;;;;6732239;88;20190;-75
2021/05/04 06:16:19;;;;;;;3.28;0.93;;;9.30;99.90;;;;;;6737593;88;20221;-76
2021/05/04 06:26:21;;;;;;;2.28;0.70;;;9.40;99.90;;;;;;6736437;88;20206;-76
2021/05/04 06:36:22;;;;;;;1.23;0.60;;;9.50;99.90;;;;;;6735647;88;20336;-75
2021/05/04 06:46:23;;;;;;;4.47;0.70;;;9.50;99.90;;;;;;6734280;88;20196;-75
2021/05/04 06:56:24;;;;;;;1.60;0.70;;;9.50;99.90;;;;;;6718702;88;20319;-77
2021/05/04 07:06:25;;;;;;;0.90;0.50;;;9.40;99.90;;;;;;6729873;88;20559;-74
2021/05/04 07:16:26;;;;;;;1.40;0.60;;;9.50;99.90;;;;;;6772737;77;20280;-78
2021/05/04 07:26:27;;;;;;;1.30;0.60;;;9.60;99.90;;;;;;6778718;87;20294;-77
2021/05/04 07:36:29;;;;;;;1.58;0.55;;;9.70;99.90;;;;;;6777246;87;20186;-78
2021/05/04 07:46:30;;;;;;;1.87;0.60;;;9.70;99.90;;;;;;6777396;87;20325;-78
2021/05/04 07:56:31;;;;;;;2.25;0.73;;;9.90;99.90;;;;;;6776545;87;20183;-78
2021/05/04 08:06:31;;;;;;;1.93;0.70;;;10.10;99.90;;;;;;6777096;87;20197;-79
2021/05/04 08:16:33;;;;;;;1.97;0.67;;;10.30;99.90;;;;;;6780084;87;20516;-79
2021/05/04 08:26:34;;;;;;;1.65;0.70;;;10.30;99.90;;;;;;6775698;87;20530;-78
2021/05/04 08:36:35;;;;;;;1.00;0.50;;;10.30;99.90;;;;;;6774788;87;20258;-78
2021/05/04 08:46:39;;;;;;;1.03;0.60;;;10.70;99.90;;;;;;6774234;88;20231;-78
2021/05/04 08:56:43;;;;;;;3.70;0.60;;;10.90;99.90;;;;;;6773856;88;20485;-78
2021/05/04 09:06:45;;;;;;;1.42;0.60;;;11.60;99.90;;;;;;6773763;88;20211;-80
2021/05/04 09:27:22;;;;;;;1.57;0.50;;;12.50;99.90;;;;;;6774178;87;20188;-77
2021/05/04 09:37:32;;;;;;;3.10;0.50;;;12.40;99.90;;;;;;6766930;87;20212;-79
2021/05/04 09:47:33;;;;;;;3.00;0.62;;;12.50;99.90;;;;;;6771796;87;20259;-76
2021/05/04 09:57:50;;;;;;;2.20;0.50;;;12.40;99.90;;;;;;6764173;87;20209;-77
2021/05/04 10:07:52;;;;;;;1.00;0.50;;;12.40;99.90;;;;;;6758840;87;20192;-74
2021/05/04 10:17:52;;;;;;;2.00;0.60;;;13.00;99.90;;;;;;6777914;87;20297;-79
2021/05/04 10:27:55;;;;;;;2.97;0.50;;;13.00;99.90;;;;;;6786844;87;20700;-78
2021/05/04 10:37:57;;;;;;;3.85;0.60;;;13.20;99.90;;;;;;6783407;87;20228;-80
2021/05/04 10:48:01;;;;;;;1.80;0.70;;;14.20;99.90;;;;;;6788595;87;20193;-79
2021/05/04 10:58:02;;;;;;;1.30;0.50;;;14.90;99.90;;;;;;6795478;87;20303;-79
2021/05/04 11:08:02;;;;;;;2.67;0.60;;;15.80;99.90;;;;;;6786955;87;20259;-77
2021/05/04 11:18:04;;;;;;;3.83;0.62;;;15.30;99.70;;;;;;6791364;87;20203;-78
2021/05/04 11:28:05;;;;;;;2.62;0.75;;;15.20;99.10;;;;;;6791469;87;20190;-78
2021/05/04 11:38:18;;;;;;;2.03;0.70;;;15.40;99.10;;;;;;6780592;87;20198;-77
2021/05/04 11:48:19;;;;;;;7.57;1.10;;;15.10;98.70;;;;;;6766621;87;20180;-77
2021/05/04 11:58:24;;;;;;;3.60;0.82;;;14.00;99.90;;;;;;6771309;87;20650;-77
2021/05/04 12:08:25;;;;;;;3.97;0.95;;;13.50;99.90;;;;;;6767412;87;20193;-76
2021/05/04 12:18:29;;;;;;;6.57;0.93;;;15.00;99.90;;;;;;6773449;87;20196;-78
2021/05/04 12:28:32;;;;;;;5.80;1.10;;;17.10;93.40;;;;;;6778155;87;20243;-77
2021/05/04 12:38:46;;;;;;;6.25;1.30;;;17.30;85.80;;;;;;6780850;87;20217;-78
2021/05/04 12:48:52;;;;;;;6.10;1.35;;;16.10;84.40;;;;;;6785466;87;20325;-77
2021/05/04 12:59:00;;;;;;;5.15;1.00;;;18.00;81.30;;;;;;6785434;87;20397;-77
2021/05/04 13:09:14;;;;;;;7.00;1.45;;;18.00;74.60;;;;;;6783948;87;20192;-77
2021/05/04 13:29:50;;;;;;;4.68;1.20;;;16.90;72.40;;;;;;6786048;87;20652;-76
2021/05/04 13:50:03;;;;;;;6.93;1.35;;;16.60;71.10;;;;;;6784610;87;20189;-76
2021/05/04 14:00:05;;;;;;;7.65;1.20;;;17.60;71.20;;;;;;6786414;87;20188;-79
2021/05/04 14:30:45;;;;;;;6.03;1.00;;;15.60;90.80;;;;;;6785387;87;20186;-76
2021/05/04 15:11:31;;;;;;;4.90;1.02;;;16.60;76.10;;;;;;6789555;87;20201;-75
2021/05/04 15:31:51;;;;;;;4.93;0.80;;;17.20;72.60;;;;;;6782126;87;20200;-76
2021/05/04 15:41:51;;;;;;;8.25;1.00;;;15.90;74.80;;;;;;6784146;87;20187;-78
2021/05/04 16:12:03;;;;;;;3.03;0.80;;;17.10;63.60;;;;;;6781022;87;20180;-78
2021/05/04 16:22:07;;;;;;;4.43;1.02;;;17.20;64.70;;;;;;6781519;87;20204;-77
2021/05/04 16:32:07;;;;;;;4.72;0.70;;;16.90;64.00;;;;;;6778461;87;20231;-78
2021/05/04 16:42:11;;;;;;;5.07;0.80;;;16.80;63.40;;;;;;6775158;87;20192;-77
2021/05/04 16:52:14;;;;;;;4.40;0.95;;;16.70;64.70;;;;;;6777232;87;20249;-77
2021/05/04 17:02:15;;;;;;;3.03;0.57;;;16.00;67.10;;;;;;6769653;87;20171;-76
2021/05/04 17:12:16;;;;;;;4.18;0.80;;;16.00;63.50;;;;;;6766063;87;20285;-75
2021/05/04 17:22:16;;;;;;;5.07;0.70;;;15.80;62.20;;;;;;6767797;87;20220;-77
2021/05/04 17:32:17;;;;;;;2.70;0.50;;;15.70;63.20;;;;;;6767541;87;20704;-76
2021/05/04 17:42:18;;;;;;;6.10;0.80;;;14.90;63.40;;;;;;6768064;87;20333;-78
2021/05/04 17:52:20;;;;;;;3.62;0.62;;;14.30;65.10;;;;;;6771821;87;20998;-77
2021/05/04 18:02:22;;;;;;;3.72;0.70;;;14.10;65.90;;;;;;6773355;87;20197;-75
2021/05/04 18:12:51;;;;;;;4.50;0.65;;;13.90;67.40;;;;;;6768784;87;20188;-75
2021/05/04 18:22:46;;;;;;;2.03;0.70;;;13.70;68.60;;;;;;6764302;87;20208;-77
2021/05/04 18:32:46;;;;;;;4.37;1.00;;;13.40;70.60;;;;;;6769071;87;20187;-77
2021/05/04 19:24:35;;;;;;;2.78;0.70;;;9.50;99.90;;;;;;6761902;87;20228;-75
2021/05/04 20:16:01;;;;;;;2.72;0.90;;;8.50;99.90;;;;;;6733271;87;20648;-77
2021/05/04 20:26:02;;;;;;;4.78;0.85;;;8.60;99.90;;;;;;6752787;87;20266;-77
2021/05/04 20:36:03;;;;;;;1.70;0.80;;;8.40;99.90;;;;;;6758280;87;20746;-73
2021/05/04 20:46:04;;;;;;;2.92;1.10;;;8.30;99.90;;;;;;6769706;87;20684;-76
2021/05/04 20:56:04;;;;;;;2.70;0.90;;;8.10;99.90;;;;;;6767790;87;20262;-77
2021/05/04 21:06:05;;;;;;;2.87;1.20;;;8.00;99.90;;;;;;6769062;87;20202;-75
2021/05/04 21:16:06;;;;;;;2.83;1.00;;;8.20;99.90;;;;;;6761992;87;20207;-76
2021/05/04 21:36:08;;;;;;;4.22;1.25;;;8.00;99.90;;;;;;6769343;87;20201;-77
2021/05/04 21:46:09;;;;;;;3.20;1.30;;;7.70;99.90;;;;;;6777301;87;20298;-74
2021/05/04 21:56:10;;;;;;;4.55;1.55;;;7.70;99.90;;;;;;6773637;87;20257;-75
2021/05/04 22:06:10;;;;;;;4.50;1.90;;;7.60;99.90;;;;;;6773021;87;20172;-75
2021/05/04 22:36:43;;;;;;;4.47;1.40;;;7.40;99.90;;;;;;6773510;87;20194;-76
2021/05/04 22:47:13;;;;;;;2.65;1.87;;;7.30;99.90;;;;;;6771826;87;20179;-75
2021/05/04 23:17:52;;;;;;;4.62;1.50;;;7.00;99.90;;;;;;6770756;87;20195;-75
2021/05/04 23:27:53;;;;;;;5.72;1.65;;;6.50;99.90;;;;;;6770137;87;20347;-77
2021/05/04 23:37:53;;;;;;;7.85;2.37;;;6.40;99.90;;;;;;6774398;87;20195;-76
2021/05/04 23:47:54;;;;;;;5.55;1.80;;;6.30;99.90;;;;;;6779369;87;20201;-77
2021/05/04 23:57:54;;;;;;;4.95;1.70;;;6.50;99.90;;;;;;6769254;87;20238;-76
